Time;durP1;ratioP1;P1;durP2;ratioP2;P2;SDS_P1;SDS_P2;PMS_P1;PMS_P2;Temp;Humidity;BMP_temperature;BMP_pressure;BME280_temperature;BME280_humidity;BME280_pressure;Samples;Min_cycle;Max_cycle;Signal;HPM_P1;HPM_P2
2022/11/21 00:00:52;;;;;;;2.20;2.00;;;;;;;20.41;53.29;96395.31;4953646;29;20200;-84
2022/11/21 00:03:19;;;;;;;1.93;1.83;;;;;;;20.51;53.20;96422.66;4958108;28;20296;-84
2022/11/21 00:05:47;;;;;;;1.73;1.63;;;;;;;20.84;53.11;96475.97;4966208;28;20200;-84
2022/11/21 00:08:17;;;;;;;1.87;1.70;;;;;;;20.88;53.30;96485.38;4955790;28;20258;-84
2022/11/21 00:10:44;;;;;;;1.87;1.77;;;;;;;18.69;53.28;96100.97;4970084;28;20197;-84
2022/11/21 00:13:23;;;;;;;2.13;1.93;;;;;;;21.12;53.25;96521.53;4962425;28;20223;-84
2022/11/21 00:15:49;;;;;;;1.90;1.80;;;;;;;21.41;53.03;96567.13;4947884;28;20200;-82
2022/11/21 00:18:16;;;;;;;1.80;1.70;;;;;;;21.39;53.33;96563.72;4948969;28;20235;-84
2022/11/21 00:20:42;;;;;;;1.73;1.63;;;;;;;21.18;53.31;96525.06;4949775;28;20238;-84
2022/11/21 00:23:09;;;;;;;1.93;1.80;;;;;;;21.37;53.40;96560.25;4949383;28;20256;-84
2022/11/21 00:25:39;;;;;;;2.13;1.80;;;;;;;21.39;53.32;96566.25;4966335;28;20290;-84
2022/11/21 00:28:05;;;;;;;1.80;1.70;;;;;;;15.08;53.24;95504.06;4967483;28;20238;-84
2022/11/21 00:30:32;;;;;;;1.73;1.63;;;;;;;21.40;53.37;96561.97;4966563;28;20580;-84
2022/11/21 00:32:58;;;;;;;1.60;1.50;;;;;;;21.39;53.53;96568.81;4958464;28;20726;-84
2022/11/21 00:35:25;;;;;;;1.73;1.63;;;;;;;20.51;53.55;96462.63;4975643;28;20199;-84
2022/11/21 00:37:52;;;;;;;1.70;1.60;;;;;;;19.65;53.46;96262.22;4973323;28;20207;-84
2022/11/21 00:40:19;;;;;;;1.80;1.70;;;;;;;18.99;53.72;96156.63;4943332;29;20219;-84
2022/11/21 00:42:45;;;;;;;1.80;1.70;;;;;;;20.48;53.49;96445.59;4971745;28;20227;-84
2022/11/21 00:45:12;;;;;;;2.10;1.90;;;;;;;20.88;53.28;96482.81;4965153;28;20232;-84
2022/11/21 00:47:38;;;;;;;1.80;1.70;;;;;;;19.34;53.11;96220.13;4942187;28;20200;-84
2022/11/21 00:50:05;;;;;;;1.60;1.50;;;;;;;21.02;53.59;96520.53;4968865;28;20212;-85
2022/11/21 00:52:32;;;;;;;1.70;1.60;;;;;;;21.38;53.57;96563.69;4958869;28;20224;-84
2022/11/21 00:54:58;;;;;;;1.90;1.80;;;;;;;21.39;53.55;96571.38;4967165;28;20204;-85
2022/11/21 00:57:25;;;;;;;1.80;1.70;;;;;;;18.79;53.52;96132.50;4953990;28;20677;-85
2022/11/21 00:59:51;;;;;;;1.70;1.60;;;;;;;21.37;53.42;96562.81;4937687;28;20288;-84
2022/11/21 01:02:18;;;;;;;1.83;1.73;;;;;;;20.79;53.54;96460.56;4968424;28;20251;-84
2022/11/21 01:04:45;;;;;;;2.13;1.93;;;;;;;21.38;53.23;96568.78;4971052;28;20216;-84
2022/11/21 01:07:13;;;;;;;1.70;1.60;;;;;;;21.39;53.51;96567.94;4966268;28;20264;-84
2022/11/21 01:09:39;;;;;;;1.70;1.60;;;;;;;21.38;53.42;96572.19;4973112;28;20203;-84
2022/11/21 01:12:06;;;;;;;1.60;1.50;;;;;;;20.95;53.55;96507.66;4948812;28;20224;-84
2022/11/21 01:14:33;;;;;;;1.50;1.40;;;;;;;20.79;53.54;96478.44;4930598;29;20738;-84
2022/11/21 01:16:59;;;;;;;2.17;1.67;;;;;;;21.37;53.57;96574.72;4951411;28;20210;-84
2022/11/21 01:19:26;;;;;;;1.73;1.63;;;;;;;21.13;53.29;96552.22;4965793;28;20207;-84
2022/11/21 01:21:52;;;;;;;1.70;1.60;;;;;;;19.32;53.44;96233.63;4934825;28;20199;-84
2022/11/21 01:24:19;;;;;;;1.57;1.47;;;;;;;21.38;53.32;96579.84;4949084;29;20311;-84
2022/11/21 01:26:49;;;;;;;1.70;1.60;;;;;;;20.65;53.50;96449.28;4969445;28;20222;-84
2022/11/21 01:29:16;;;;;;;1.80;1.70;;;;;;;21.36;53.71;96567.91;4948151;29;20200;-84
2022/11/21 01:31:43;;;;;;;1.60;1.50;;;;;;;21.37;53.59;96561.94;4953167;28;20209;-83
2022/11/21 01:34:09;;;;;;;1.67;1.57;;;;;;;18.61;53.35;96094.88;4962242;28;20219;-84
2022/11/21 01:36:36;;;;;;;1.60;1.50;;;;;;;21.36;53.86;96557.69;4926116;29;20211;-84
2022/11/21 01:39:04;;;;;;;1.73;1.63;;;;;;;21.36;53.40;96563.66;4955119;28;20294;-84
2022/11/21 01:41:38;;;;;;;1.60;1.50;;;;;;;20.33;53.58;96384.09;4961110;28;20287;-84
2022/11/21 01:44:24;;;;;;;1.50;1.40;;;;;;;21.36;53.69;96556.00;4955594;28;20732;-87
2022/11/21 01:46:52;;;;;;;1.43;1.33;;;;;;;20.34;53.65;96372.22;4939823;28;20758;-84
2022/11/21 01:49:26;;;;;;;1.70;1.60;;;;;;;18.11;53.46;96006.59;4948262;29;20223;-84
2022/11/21 01:52:05;;;;;;;1.60;1.50;;;;;;;21.04;53.52;96495.00;4935086;28;20208;-84
2022/11/21 01:55:07;;;;;;;1.77;1.63;;;;;;;21.24;53.70;96540.47;4951736;28;20696;-84
2022/11/21 01:57:39;;;;;;;1.43;1.33;;;;;;;21.35;53.64;96528.69;4893252;29;20365;-84
2022/11/21 02:00:08;;;;;;;1.40;1.30;;;;;;;21.35;53.75;96538.91;4945462;28;20212;-84
2022/11/21 02:02:36;;;;;;;1.70;1.60;;;;;;;21.35;53.71;96528.69;4962247;28;20606;-83
2022/11/21 02:05:04;;;;;;;1.60;1.50;;;;;;;20.34;53.67;96344.16;4942018;28;20254;-84
2022/11/21 02:07:32;;;;;;;1.50;1.40;;;;;;;21.36;53.83;96516.78;4945911;28;20215;-84
2022/11/21 02:10:00;;;;;;;1.50;1.40;;;;;;;18.97;53.58;96105.69;4947269;28;20628;-84
2022/11/21 02:12:50;;;;;;;1.60;1.50;;;;;;;21.35;53.66;96512.53;4955202;28;20743;-84
2022/11/21 02:15:20;;;;;;;1.50;1.40;;;;;;;21.35;53.62;96515.91;4952595;28;20203;-87
2022/11/21 02:17:47;;;;;;;1.80;1.70;;;;;;;20.38;53.62;96344.22;4936636;28;20239;-83
2022/11/21 02:20:15;;;;;;;1.60;1.50;;;;;;;19.92;53.69;96268.66;4953041;28;20287;-83
2022/11/21 02:23:00;;;;;;;1.40;1.30;;;;;;;21.36;53.79;96514.22;4956998;28;20643;-84
2022/11/21 02:25:28;;;;;;;1.50;1.40;;;;;;;20.52;53.85;96375.88;4964589;28;20220;-84
2022/11/21 02:28:02;;;;;;;1.53;1.43;;;;;;;21.35;53.78;96533.81;4951353;28;20666;-86
2022/11/21 02:30:29;;;;;;;1.77;1.60;;;;;;;21.36;53.84;96529.56;4931822;29;20217;-82
2022/11/21 02:32:56;;;;;;;1.70;1.60;;;;;;;19.71;53.63;96226.66;4941817;29;20698;-86
2022/11/21 02:35:22;;;;;;;1.50;1.40;;;;;;;21.35;53.79;96515.09;4948109;29;20196;-86
2022/11/21 02:38:15;;;;;;;1.60;1.50;;;;;;;20.99;53.57;96473.66;4954489;28;20577;-84
2022/11/21 02:40:49;;;;;;;1.40;1.30;;;;;;;20.84;53.67;96435.09;4951415;28;20208;-86
2022/11/21 02:43:22;;;;;;;1.60;1.50;;;;;;;21.35;53.83;96510.81;4949811;28;20238;-86
2022/11/21 02:45:49;;;;;;;1.40;1.30;;;;;;;20.32;53.50;96345.81;4928569;28;20209;-86
2022/11/21 02:48:15;;;;;;;1.60;1.50;;;;;;;20.27;53.75;96317.69;4936800;28;20282;-86
2022/11/21 02:50:43;;;;;;;1.53;1.43;;;;;;;20.33;53.77;96343.28;4943912;29;20217;-86
2022/11/21 02:53:15;;;;;;;1.60;1.50;;;;;;;19.63;53.61;96211.25;4969589;28;20597;-86
2022/11/21 02:55:42;;;;;;;1.40;1.30;;;;;;;21.34;53.87;96491.22;4928848;29;20300;-86
2022/11/21 02:58:09;;;;;;;1.70;1.60;;;;;;;21.16;53.71;96457.75;4953155;28;20687;-86
2022/11/21 03:00:36;;;;;;;1.60;1.50;;;;;;;18.01;53.42;95918.28;4933498;29;20291;-86
2022/11/21 03:03:03;;;;;;;1.50;1.40;;;;;;;20.80;53.71;96388.22;4962745;28;20235;-86
2022/11/21 03:05:30;;;;;;;1.97;1.30;;;;;;;20.75;53.72;96379.63;4939179;28;20230;-86
2022/11/21 03:07:56;;;;;;;1.60;1.50;;;;;;;20.03;53.43;96253.50;4949722;28;20706;-85
2022/11/21 03:10:23;;;;;;;1.40;1.30;;;;;;;21.35;53.52;96485.25;4958160;28;20516;-86
2022/11/21 03:12:49;;;;;;;1.40;1.30;;;;;;;21.04;53.45;96449.91;4954737;28;20338;-86
2022/11/21 03:15:16;;;;;;;2.13;1.57;;;;;;;18.72;53.67;96039.06;4940279;28;20195;-86
2022/11/21 03:17:46;;;;;;;1.30;1.30;;;;;;;21.35;53.92;96481.84;4953202;28;20235;-86
2022/11/21 03:20:13;;;;;;;1.60;1.50;;;;;;;21.05;53.84;96425.22;4965157;28;20199;-86
2022/11/21 03:22:39;;;;;;;1.37;1.20;;;;;;;21.36;53.71;96486.13;4936535;28;20266;-86
2022/11/21 03:25:06;;;;;;;1.27;1.27;;;;;;;21.36;53.84;96486.13;4969588;28;20230;-86
2022/11/21 03:27:33;;;;;;;1.40;1.30;;;;;;;21.35;53.60;96487.81;4965489;28;20235;-86
2022/11/21 03:29:59;;;;;;;1.53;1.43;;;;;;;21.36;53.74;96479.31;4951324;28;20243;-86
2022/11/21 03:32:26;;;;;;;1.63;1.53;;;;;;;20.79;54.05;96376.31;4962166;28;20247;-86
2022/11/21 03:34:52;;;;;;;1.57;1.47;;;;;;;21.36;53.70;96486.13;4964937;28;20204;-86
2022/11/21 03:37:19;;;;;;;1.50;1.40;;;;;;;20.05;53.70;96256.09;4968575;28;20697;-86
2022/11/21 03:39:46;;;;;;;1.40;1.30;;;;;;;20.10;53.61;96257.84;4942157;29;20211;-86
2022/11/21 03:42:12;;;;;;;1.50;1.40;;;;;;;19.25;54.02;96118.06;4948852;28;20314;-86
2022/11/21 03:44:39;;;;;;;1.40;1.30;;;;;;;20.95;53.57;96408.03;4972722;28;20215;-86
2022/11/21 03:47:05;;;;;;;1.40;1.30;;;;;;;20.10;53.59;96257.03;4962500;28;20212;-86
2022/11/21 03:49:32;;;;;;;1.40;1.30;;;;;;;21.36;53.50;96475.91;4952894;29;20205;-86
2022/11/21 03:51:58;;;;;;;1.40;1.30;;;;;;;17.98;53.24;95929.28;4967918;28;20207;-86
2022/11/21 03:54:25;;;;;;;1.43;1.33;;;;;;;19.60;53.69;96179.78;4968980;28;20199;-86
2022/11/21 03:56:52;;;;;;;1.53;1.20;;;;;;;20.30;53.54;96296.44;4968301;28;20668;-86
2022/11/21 03:59:19;;;;;;;1.20;1.20;;;;;;;21.18;53.76;96439.88;4952628;28;20210;-86
2022/11/21 04:01:45;;;;;;;1.40;1.30;;;;;;;21.06;53.71;96429.50;4970034;28;20211;-86
2022/11/21 04:04:12;;;;;;;1.20;1.20;;;;;;;20.47;53.70;96331.59;4936289;28;20266;-86
2022/11/21 04:06:38;;;;;;;1.50;1.40;;;;;;;19.41;53.66;96144.63;4956610;28;20210;-86
2022/11/21 04:09:05;;;;;;;1.40;1.30;;;;;;;15.05;53.64;95402.84;4964682;28;20196;-86
2022/11/21 04:11:31;;;;;;;1.23;1.20;;;;;;;20.59;53.44;96352.19;4967574;28;20207;-86
2022/11/21 04:13:58;;;;;;;1.30;1.20;;;;;;;20.29;53.88;96294.72;4968662;28;20658;-85
2022/11/21 04:16:24;;;;;;;1.30;1.30;;;;;;;19.82;53.75;96240.44;4948965;28;20210;-86
2022/11/21 04:18:51;;;;;;;1.23;1.20;;;;;;;21.35;53.51;96476.75;4936240;28;20334;-86
2022/11/21 04:21:17;;;;;;;1.17;1.10;;;;;;;18.72;53.49;96026.34;4966545;28;20201;-86
2022/11/21 04:23:44;;;;;;;1.20;1.20;;;;;;;20.28;53.81;96293.88;4966495;28;20228;-86
2022/11/21 04:26:11;;;;;;;1.20;1.20;;;;;;;20.76;53.62;96370.28;4965353;28;20200;-87
2022/11/21 04:28:37;;;;;;;1.40;1.30;;;;;;;21.36;53.61;96481.00;4950026;28;20295;-86
2022/11/21 04:31:04;;;;;;;1.30;1.20;;;;;;;20.20;53.70;96284.41;4944318;28;20207;-86
2022/11/21 04:33:37;;;;;;;1.50;1.40;;;;;;;21.34;53.79;96481.00;4940391;28;20767;-86
2022/11/21 04:36:04;;;;;;;1.27;1.23;;;;;;;21.35;53.43;96476.75;4957307;28;20741;-86
2022/11/21 04:38:31;;;;;;;1.37;1.27;;;;;;;20.80;53.82;96388.22;4958641;28;20201;-84
2022/11/21 04:40:57;;;;;;;1.20;1.20;;;;;;;20.69;53.51;96371.06;4958674;28;20657;-85
2022/11/21 04:43:24;;;;;;;1.43;1.33;;;;;;;19.27;53.65;96134.22;4938257;28;20309;-86
2022/11/21 04:45:51;;;;;;;1.37;1.27;;;;;;;20.69;53.52;96365.94;4940869;28;20216;-86
2022/11/21 04:48:17;;;;;;;1.20;1.20;;;;;;;21.35;53.64;96479.31;4955385;28;20625;-86
2022/11/21 04:50:44;;;;;;;1.33;1.23;;;;;;;20.50;53.69;96331.63;4956919;28;20283;-86
2022/11/21 04:53:10;;;;;;;1.20;1.20;;;;;;;20.16;53.93;96282.66;4965546;28;20225;-86
2022/11/21 04:55:37;;;;;;;1.23;1.13;;;;;;;21.35;53.63;96480.13;4934271;29;20204;-86
2022/11/21 04:58:04;;;;;;;1.40;1.30;;;;;;;20.59;53.64;96351.31;4965197;28;20205;-86
2022/11/21 05:00:30;;;;;;;1.50;1.40;;;;;;;21.35;53.62;96487.81;4963457;28;20211;-85
2022/11/21 05:03:03;;;;;;;1.20;1.10;;;;;;;20.55;53.57;96342.78;4950093;28;20228;-86
2022/11/21 05:05:30;;;;;;;1.10;1.10;;;;;;;21.35;53.29;96480.13;4964371;28;20247;-86
2022/11/21 05:07:57;;;;;;;1.10;1.10;;;;;;;20.52;53.63;96334.22;4966378;28;20279;-85
2022/11/21 05:10:23;;;;;;;1.30;1.20;;;;;;;21.35;53.68;96471.63;4963899;28;20212;-86
2022/11/21 05:15:51;;;;;;;1.10;1.10;;;;;;;18.42;53.65;95969.88;4967802;28;20200;-84
2022/11/21 05:18:18;;;;;;;1.30;1.20;;;;;;;21.25;53.74;96450.19;4957984;28;20214;-86
2022/11/21 05:20:45;;;;;;;1.40;1.30;;;;;;;21.36;53.55;96473.34;4966461;28;20659;-86
2022/11/21 05:23:11;;;;;;;1.00;1.00;;;;;;;17.91;53.86;95902.03;4964225;28;20250;-86
2022/11/21 05:25:38;;;;;;;1.17;1.10;;;;;;;17.57;53.62;95825.19;4959516;28;20228;-89
2022/11/21 05:28:08;;;;;;;1.43;1.33;;;;;;;19.37;53.54;96159.03;4956421;28;20204;-86
2022/11/21 05:30:38;;;;;;;1.10;1.10;;;;;;;14.31;53.81;95397.00;4937540;28;20220;-86
2022/11/21 05:33:09;;;;;;;1.30;1.20;;;;;;;9.29;52.83;94401.50;4964343;28;20823;-86
2022/11/21 05:35:38;;;;;;;1.13;1.10;;;;;;;13.48;53.01;95141.75;4959687;28;20273;-86
2022/11/21 05:38:11;;;;;;;1.10;1.10;;;;;;;17.47;53.23;95790.31;4960514;28;20216;-86
2022/11/21 05:40:42;;;;;;;1.43;1.33;;;;;;;9.71;52.93;94528.72;4958037;28;20207;-86
2022/11/21 05:45:57;;;;;;;1.10;1.10;;;;;;;15.16;53.21;95494.97;4966291;28;20656;-86
2022/11/21 05:48:28;;;;;;;2.20;1.33;;;;;;;14.21;53.10;95225.81;4965097;28;20223;-86
2022/11/21 05:51:03;;;;;;;1.10;1.10;;;;;;;16.77;53.23;95739.03;4928510;28;20204;-86
2022/11/21 05:53:39;;;;;;;1.40;1.30;;;;;;;12.05;53.15;94847.84;4945709;28;20230;-87
2022/11/21 05:56:14;;;;;;;1.20;1.10;;;;;;;15.54;53.37;95494.97;4951240;28;20807;-86
2022/11/21 05:58:43;;;;;;;1.10;1.10;;;;;;;12.97;53.66;95129.56;4927742;28;20240;-87
2022/11/21 06:03:25;;;;;;;1.40;1.30;;;;;;;10.45;53.22;94582.53;4966723;28;20200;-87
2022/11/21 06:04:05;;;;;;;1.10;1.10;;;;;;;15.49;53.35;95524.44;4959480;28;20234;-87
2022/11/21 06:06:32;;;;;;;1.27;1.17;;;;;;;21.39;53.46;96539.84;4969766;28;20723;-86
2022/11/21 06:09:03;;;;;;;1.40;1.30;;;;;;;18.19;53.39;95888.97;4942707;28;20204;-86
2022/11/21 06:11:37;;;;;;;1.07;1.07;;;;;;;9.50;53.15;94551.53;4974205;28;20254;-87
2022/11/21 06:14:10;;;;;;;1.20;1.20;;;;;;;15.40;53.14;95417.94;4961676;28;20693;-86
2022/11/21 06:16:46;;;;;;;1.30;1.20;;;;;;;11.01;52.95;94674.31;4917885;29;20212;-83
2022/11/21 06:19:12;;;;;;;1.40;1.30;;;;;;;14.85;52.88;95334.16;4961781;28;20200;-85
2022/11/21 06:21:39;;;;;;;1.93;1.30;;;;;;;20.09;53.52;96273.13;4955663;28;20554;-87
2022/11/21 06:24:06;;;;;;;3.63;1.63;;;;;;;19.82;51.15;96166.50;4967543;28;20669;-85
2022/11/21 06:26:33;;;;;;;2.33;1.50;;;;;;;21.36;49.69;96432.44;4924826;29;20232;-87
2022/11/21 06:28:59;;;;;;;2.30;1.80;;;;;;;21.35;48.43;96423.91;4960261;28;20208;-85
2022/11/21 06:31:26;;;;;;;1.70;1.60;;;;;;;20.98;47.44;96370.63;4955500;28;20204;-85
2022/11/21 06:33:55;;;;;;;2.57;1.90;;;;;;;20.62;46.73;96313.06;4941389;28;20259;-86
2022/11/21 06:36:21;;;;;;;2.30;1.83;;;;;;;21.13;46.06;96403.19;4946955;28;20196;-86
2022/11/21 06:38:48;;;;;;;3.23;1.80;;;;;;;21.31;45.89;96437.50;4952892;28;20216;-86
2022/11/21 06:41:16;;;;;;;2.10;1.80;;;;;;;21.31;45.75;96444.31;4945828;28;20195;-85
2022/11/21 06:43:43;;;;;;;2.10;1.90;;;;;;;19.68;46.05;96171.41;4943028;29;20289;-83
2022/11/21 06:46:10;;;;;;;1.80;1.70;;;;;;;20.79;46.73;96358.44;4931004;28;20638;-85
2022/11/21 06:48:36;;;;;;;2.60;1.70;;;;;;;20.38;47.25;96312.72;4946108;28;20202;-85
2022/11/21 06:51:16;;;;;;;2.17;1.73;;;;;;;21.01;47.53;96409.00;4958249;28;20539;-85
2022/11/21 06:53:43;;;;;;;1.70;1.60;;;;;;;19.55;48.12;96164.41;4964849;28;20216;-85
2022/11/21 06:56:09;;;;;;;2.33;1.73;;;;;;;21.27;48.23;96455.31;4941786;28;20193;-85
2022/11/21 06:58:36;;;;;;;3.33;1.60;;;;;;;20.87;48.71;96395.13;4940859;28;20227;-84
2022/11/21 07:01:06;;;;;;;1.60;1.50;;;;;;;21.27;48.92;96460.44;4951159;28;20937;-85
2022/11/21 07:03:33;;;;;;;1.50;1.40;;;;;;;20.19;49.22;96282.69;4959584;28;20798;-86
2022/11/21 07:06:03;;;;;;;1.63;1.33;;;;;;;20.04;49.40;96254.38;4956515;28;20226;-87
2022/11/21 07:08:30;;;;;;;1.50;1.40;;;;;;;17.02;49.81;95766.59;4930583;28;20204;-87
2022/11/21 07:11:04;;;;;;;2.07;1.50;;;;;;;20.00;50.00;96253.47;4939279;28;20215;-88
2022/11/21 07:13:51;;;;;;;1.83;1.60;;;;;;;21.28;50.00;96477.47;4948977;28;20290;-86
2022/11/21 07:16:18;;;;;;;3.77;1.80;;;;;;;19.96;48.87;96255.09;4967847;28;20195;-85
2022/11/21 07:18:44;;;;;;;1.70;1.60;;;;;;;20.59;47.87;96358.97;4961272;28;20283;-79
2022/11/21 07:21:11;;;;;;;2.10;1.70;;;;;;;21.12;48.87;96453.44;4960264;28;20592;-84
2022/11/21 07:23:37;;;;;;;3.47;1.70;;;;;;;19.58;48.79;96192.50;4966723;28;20224;-85
2022/11/21 07:26:05;;;;;;;3.67;1.57;;;;;;;20.65;47.19;96384.59;4944136;28;20228;-85
2022/11/21 07:28:32;;;;;;;3.07;1.80;;;;;;;21.26;46.08;96494.50;4924607;28;20823;-82
2022/11/21 07:30:59;;;;;;;3.37;1.93;;;;;;;21.25;46.21;96497.88;4962864;28;20207;-85
2022/11/21 07:33:25;;;;;;;2.40;1.53;;;;;;;20.38;47.00;96348.44;4952391;28;20231;-87
2022/11/21 07:35:55;;;;;;;1.77;1.67;;;;;;;20.01;47.32;96280.66;4961008;28;20201;-85
2022/11/21 07:38:21;;;;;;;1.73;1.60;;;;;;;20.31;47.63;96337.28;4942088;28;20205;-85
2022/11/21 07:40:48;;;;;;;1.50;1.40;;;;;;;21.24;48.20;96488.50;4942389;29;20208;-85
2022/11/21 07:43:14;;;;;;;1.77;1.60;;;;;;;20.32;48.14;96328.81;4951674;28;20223;-87
2022/11/21 07:45:41;;;;;;;3.73;1.90;;;;;;;18.99;48.48;96105.72;4956819;28;20232;-85
2022/11/21 07:48:08;;;;;;;1.77;1.60;;;;;;;20.72;48.67;96402.56;4962943;28;20524;-84
2022/11/21 07:50:35;;;;;;;1.63;1.37;;;;;;;20.27;48.89;96332.97;4939435;28;20729;-84
2022/11/21 07:53:04;;;;;;;2.30;1.53;;;;;;;20.89;49.05;96430.91;4951483;28;20599;-88
2022/11/21 07:55:30;;;;;;;1.30;1.20;;;;;;;20.37;49.14;96344.19;4946783;28;20201;-85
2022/11/21 07:58:10;;;;;;;1.47;1.37;;;;;;;20.03;49.42;96289.22;4957508;28;20537;-84
2022/11/21 08:00:38;;;;;;;1.63;1.53;;;;;;;20.92;49.44;96442.03;4945282;28;20326;-88
2022/11/21 08:03:05;;;;;;;2.20;1.40;;;;;;;20.52;49.62;96372.50;4947182;28;20223;-87
2022/11/21 08:05:39;;;;;;;1.53;1.43;;;;;;;20.69;49.60;96399.97;4945123;28;20634;-87
2022/11/21 08:08:05;;;;;;;1.63;1.30;;;;;;;20.12;49.73;96307.22;4927158;28;20240;-85
2022/11/21 08:10:32;;;;;;;1.83;1.50;;;;;;;20.99;49.72;96450.69;4944608;28;20213;-84
2022/11/21 08:12:59;;;;;;;1.40;1.30;;;;;;;20.98;50.04;96449.81;4947488;28;20236;-89
2022/11/21 08:15:25;;;;;;;3.57;1.77;;;;;;;20.65;49.72;96398.22;4949680;28;20778;-85
2022/11/21 08:17:52;;;;;;;1.53;1.37;;;;;;;20.33;49.89;96345.84;4960686;28;20200;-85
2022/11/21 08:20:18;;;;;;;1.50;1.40;;;;;;;21.28;50.49;96501.34;4943712;28;20199;-84
2022/11/21 08:22:45;;;;;;;1.70;1.40;;;;;;;20.76;49.96;96414.56;4955659;28;20314;-87
2022/11/21 08:25:11;;;;;;;1.80;1.30;;;;;;;20.69;50.74;96399.13;4950776;28;20318;-86
2022/11/21 08:27:38;;;;;;;1.57;1.40;;;;;;;20.71;50.24;96408.53;4953222;28;20204;-85
2022/11/21 08:30:09;;;;;;;1.80;1.57;;;;;;;19.98;49.96;96284.03;4957944;28;20212;-87
2022/11/21 08:32:36;;;;;;;1.47;1.37;;;;;;;20.59;50.21;96393.03;4957529;28;20311;-89
2022/11/21 08:35:03;;;;;;;1.40;1.30;;;;;;;20.74;50.30;96411.13;4955910;28;20689;-86
2022/11/21 08:37:29;;;;;;;1.40;1.30;;;;;;;20.92;50.39;96442.03;4948197;28;20207;-84
2022/11/21 08:39:59;;;;;;;1.27;1.17;;;;;;;20.43;50.08;96367.25;4959627;28;20271;-85
2022/11/21 08:42:26;;;;;;;1.63;1.30;;;;;;;19.50;50.44;96209.34;4926860;28;20268;-90
2022/11/21 08:44:53;;;;;;;1.40;1.30;;;;;;;20.35;50.32;96345.84;4949009;28;20202;-86
2022/11/21 08:47:19;;;;;;;2.43;1.60;;;;;;;21.29;50.85;96513.28;4953501;28;20211;-87
2022/11/21 08:49:46;;;;;;;1.40;1.30;;;;;;;19.86;50.49;96270.22;4957242;28;20200;-88
2022/11/21 08:52:13;;;;;;;1.30;1.20;;;;;;;20.93;50.34;96443.75;4931233;28;20215;-86
2022/11/21 08:54:40;;;;;;;1.57;1.40;;;;;;;20.42;50.58;96368.94;4943085;28;20204;-85
2022/11/21 08:57:06;;;;;;;1.47;1.20;;;;;;;21.30;50.78;96516.69;4944318;28;20200;-88
2022/11/21 08:59:33;;;;;;;1.33;1.23;;;;;;;19.18;50.41;96166.28;4956443;28;20211;-89
2022/11/21 09:02:00;;;;;;;1.30;1.20;;;;;;;21.31;50.76;96520.97;4962161;28;20672;-85
2022/11/21 09:04:26;;;;;;;1.40;1.30;;;;;;;21.30;50.32;96517.56;4945358;28;20205;-84
2022/11/21 09:06:53;;;;;;;1.47;1.37;;;;;;;21.31;50.88;96524.38;4958002;28;20690;-87
2022/11/21 09:09:20;;;;;;;1.90;1.30;;;;;;;20.99;51.05;96466.00;4957639;28;20209;-87
2022/11/21 09:11:51;;;;;;;1.07;1.00;;;;;;;20.13;50.87;96315.75;4966855;28;20627;-87
2022/11/21 09:19:47;;;;;;;1.10;1.10;;;;;;;20.90;50.94;96447.97;4962017;28;20309;-85
2022/11/21 09:22:14;;;;;;;1.40;1.30;;;;;;;21.32;50.98;96513.31;4958096;28;20234;-88
2022/11/21 09:24:40;;;;;;;1.60;1.50;;;;;;;20.39;50.92;96361.22;4950416;28;20297;-84
2022/11/21 09:27:07;;;;;;;1.53;1.37;;;;;;;21.32;51.11;96515.88;4959570;28;20231;-87
2022/11/21 09:29:33;;;;;;;1.10;1.10;;;;;;;20.69;50.95;96399.13;4954336;28;20335;-85
2022/11/21 09:32:00;;;;;;;1.83;1.27;;;;;;;21.33;51.00;96514.19;4956122;28;20228;-85
2022/11/21 09:34:27;;;;;;;1.23;1.10;;;;;;;20.47;51.16;96363.91;4945374;28;20216;-89
2022/11/21 09:36:54;;;;;;;1.43;1.30;;;;;;;21.32;50.94;96515.88;4960667;28;20232;-84
2022/11/21 09:39:21;;;;;;;1.27;1.17;;;;;;;20.39;51.13;96357.81;4962563;28;20240;-85
2022/11/21 09:42:02;;;;;;;1.63;1.30;;;;;;;21.32;51.33;96515.03;4941315;29;20204;-88
2022/11/21 09:44:44;;;;;;;1.40;1.30;;;;;;;21.32;51.27;96518.44;4957695;28;20207;-87
2022/11/21 09:47:31;;;;;;;1.40;1.30;;;;;;;21.33;51.10;96511.63;4962537;28;20223;-84
2022/11/21 09:50:00;;;;;;;1.00;1.00;;;;;;;20.31;51.21;96332.19;4955767;28;20594;-84
2022/11/21 09:52:35;;;;;;;1.40;1.30;;;;;;;21.33;51.38;96516.75;4962514;28;20709;-87
2022/11/21 09:55:04;;;;;;;1.20;1.20;;;;;;;20.22;51.25;96331.22;4944707;28;20226;-84
2022/11/21 09:57:31;;;;;;;1.10;1.10;;;;;;;21.32;51.26;96500.53;4938110;29;20207;-87
2022/11/21 10:00:03;;;;;;;1.07;1.07;;;;;;;19.74;51.24;96236.91;4955798;28;20227;-87
2022/11/21 10:02:29;;;;;;;1.23;1.13;;;;;;;19.78;50.88;96247.16;4921144;28;20314;-84
2022/11/21 10:04:59;;;;;;;1.20;1.20;;;;;;;20.79;51.01;96414.63;4961727;28;20234;-86
2022/11/21 10:07:30;;;;;;;1.20;1.10;;;;;;;20.78;51.27;96401.81;4939356;29;20228;-87
2022/11/21 10:10:17;;;;;;;1.23;1.20;;;;;;;19.12;51.17;96154.31;4949563;28;20618;-84
2022/11/21 10:13:11;;;;;;;1.60;1.30;;;;;;;21.33;51.57;96494.63;4963520;28;20231;-85
2022/11/21 10:15:50;;;;;;;1.37;1.27;;;;;;;21.34;51.51;96490.34;4956804;28;20661;-85
2022/11/21 10:18:38;;;;;;;1.33;1.27;;;;;;;21.33;51.22;96488.63;4957979;28;20685;-84
2022/11/21 10:21:10;;;;;;;1.43;1.20;;;;;;;21.33;51.49;96489.50;4960361;28;20204;-84
2022/11/21 10:23:51;;;;;;;1.10;1.10;;;;;;;21.34;51.50;96488.66;4963283;28;20223;-88
2022/11/21 10:26:36;;;;;;;1.40;1.30;;;;;;;21.33;51.32;96480.97;4950531;28;20219;-85
2022/11/21 10:29:14;;;;;;;1.40;1.23;;;;;;;20.70;51.47;96378.75;4961945;28;20310;-86
2022/11/21 10:31:41;;;;;;;1.37;1.27;;;;;;;20.77;51.16;96375.41;4948616;28;20230;-84
2022/11/21 10:34:34;;;;;;;1.73;1.30;;;;;;;21.34;51.36;96467.34;4947645;28;20284;-82
2022/11/21 10:37:40;;;;;;;1.10;1.10;;;;;;;21.24;51.42;96438.28;4960728;28;20282;-85
2022/11/21 10:40:36;;;;;;;1.00;1.00;;;;;;;21.34;51.35;96454.56;4938286;28;20235;-87
2022/11/21 10:46:00;;;;;;;1.30;1.20;;;;;;;19.72;51.63;96187.59;4966184;28;20232;-88
2022/11/21 10:48:27;;;;;;;1.30;1.13;;;;;;;21.34;51.66;96462.22;4940930;28;20216;-85
2022/11/21 10:51:12;;;;;;;1.00;1.00;;;;;;;21.34;51.42;96463.09;4963846;28;20238;-86
2022/11/21 10:56:28;;;;;;;1.10;1.10;;;;;;;21.34;51.75;96457.13;4965045;28;20203;-86
2022/11/21 10:58:56;;;;;;;1.37;1.27;;;;;;;19.29;51.43;96104.56;4963597;28;20204;-88
2022/11/21 11:01:27;;;;;;;1.30;1.20;;;;;;;21.34;51.39;96450.31;4948350;28;20214;-84
2022/11/21 11:04:08;;;;;;;1.50;1.30;;;;;;;21.34;51.71;96445.22;4945800;28;20227;-83
2022/11/21 11:06:55;;;;;;;1.40;1.30;;;;;;;20.99;51.43;96381.72;4946105;28;20220;-84
2022/11/21 11:09:27;;;;;;;3.27;1.30;;;;;;;21.34;51.38;96432.44;4937389;28;20311;-89
2022/11/21 11:15:22;;;;;;;1.50;1.10;;;;;;;21.34;51.59;96429.00;4950198;28;20217;-87
2022/11/21 11:17:55;;;;;;;1.20;1.20;;;;;;;21.34;51.74;96431.56;4965698;28;20632;-83
2022/11/21 11:20:48;;;;;;;4.00;1.10;;;;;;;21.34;51.52;96421.34;4921104;28;20316;-84
2022/11/21 11:23:26;;;;;;;1.20;1.10;;;;;;;21.35;51.67;96420.53;4951708;28;20260;-90
2022/11/21 11:25:57;;;;;;;1.30;1.13;;;;;;;20.06;51.70;96204.22;4977495;23;20208;-92
2022/11/21 11:28:34;;;;;;;1.20;1.10;;;;;;;20.10;51.59;96191.53;4946165;28;20196;-92
2022/11/21 11:31:01;;;;;;;1.00;1.00;;;;;;;20.54;51.77;96284.91;4977130;28;20207;-92
2022/11/21 11:33:27;;;;;;;1.00;1.00;;;;;;;21.35;52.09;96405.19;4948122;28;20277;-94
2022/11/21 11:36:14;;;;;;;1.40;1.30;;;;;;;20.90;51.64;96327.94;4973037;28;20200;-94
2022/11/21 11:38:42;;;;;;;1.00;1.00;;;;;;;20.11;51.61;96192.41;4965516;28;20524;-94
2022/11/21 11:47:29;;;;;;;1.40;1.30;;;;;;;20.93;51.91;96330.53;4938555;28;20181;-94
2022/11/21 11:47:29;;;;;;;1.00;1.00;;;;;;;20.52;51.70;96250.81;4963425;28;20209;-94
2022/11/21 11:50:10;;;;;;;1.10;1.03;;;;;;;20.04;51.66;96158.31;4929630;28;20211;-94
2022/11/21 11:52:56;;;;;;;1.10;1.00;;;;;;;20.96;51.94;96326.34;4934970;28;20205;-94
2022/11/21 11:55:54;;;;;;;1.00;1.00;;;;;;;21.37;51.81;96380.50;4938077;28;20232;-94
2022/11/21 11:58:28;;;;;;;0.90;0.90;;;;;;;20.15;51.69;96179.75;4948867;28;20182;-92
2022/11/21 12:01:03;;;;;;;1.30;1.20;;;;;;;20.28;51.84;96194.38;4945207;28;20568;-93
2022/11/21 12:03:45;;;;;;;1.07;1.07;;;;;;;20.15;51.65;96167.00;4943878;28;20180;-92
2022/11/21 12:06:45;;;;;;;1.20;1.10;;;;;;;21.34;52.13;96371.09;4930506;28;20240;-93
2022/11/21 12:09:34;;;;;;;1.13;1.07;;;;;;;20.33;52.16;96212.28;4939904;28;20795;-94
2022/11/21 12:12:27;;;;;;;1.00;1.00;;;;;;;20.28;51.88;96181.63;4935043;28;20208;-93